Latest Coastal Weather Observations for Whyalla

IDS60701

Issued at 6:11 am CST Tuesday 27 June 2017 (issued every 10 minutes, with the page automatically refreshed every 10 minutes)

About coastal observations | Map of coastal stations | Coastal observations for SA | Marine services | Other Formats
Station Details ID: 018120 Name: WHYALLA AERO Lat: -33.05 Lon: 137.52 Height: 9.3 m
Data from the previous 72 hours. | See also: Recent months at Whyalla
Date/Time
CST
Temp
°C
Wind Pressure Rain since
9am
mm
Weather Cloud Vis
km
Sea
Height
m
Swell
Dir  Spd
kts
Gust
kts
hPa Trend Height
m
Period
s
Dir
27/06:00am 8.0 NW 5 6 1022.9 - 0.0 - Cloudy 10 - - - -
27/05:30am 8.2 NW 5 7 1022.9 - 0.0 - Partly cloudy 10 - - - -
27/05:00am 8.0 NW 5 5 1022.8 - 0.0 - Cloudy 10 - - - -
27/04:30am 7.9 WNW 4 5 1022.8 - 0.0 - Cloudy 10 - - - -
27/04:00am 7.8 WNW 4 5 1022.9 - 0.0 - Partly cloudy 10 - - - -
27/03:30am 7.9 NW 5 6 1022.9 - 0.0 - Cloudy 10 - - - -
27/03:00am 7.6 NW 5 6 1023.1 - 0.0 - Cloudy 10 - - - -
27/02:30am 7.5 NW 3 4 1023.1 - 0.0 - - 10 - - - -
27/02:00am 7.5 NW 5 5 1023.5 - 0.0 - - 10 - - - -
27/01:30am 7.6 NW 4 5 1023.5 - 0.0 - - 10 - - - -
27/01:00am 7.4 NW 3 4 1023.6 - 0.0 - - 10 - - - -
27/12:30am 7.1 NW 3 5 1024.1 - 0.0 - - 10 - - - -
27/12:00am 7.2 NW 4 5 1024.5 - 0.0 - Cloudy 10 - - - -
 
Date/Time
CST
Temp
°C
Wind Pressure Rain since
9am
mm
Weather Cloud Vis
km
Sea
Height
m
Swell
Dir  Spd
kts
Gust
kts
hPa Trend Height
m
Period
s
Dir
26/11:30pm 7.0 WNW 4 5 1024.4 - 0.0 - - 10 - - - -
26/11:00pm 7.2 NNW 3 4 1024.5 - 0.0 - Partly cloudy 10 - - - -
26/10:30pm 6.7 NNW 5 6 1024.6 - 0.0 - - 10 - - - -
26/10:00pm 6.3 NW 4 5 1024.7 - 0.0 - - 10 - - - -
26/09:30pm 6.2 NW 5 6 1025.0 - 0.0 - - 10 - - - -
26/09:00pm 7.4 WNW 3 5 1025.2 - 0.0 - - 10 - - - -
26/08:30pm 8.0 WNW 4 5 1025.4 - 0.0 - - 10 - - - -
26/08:00pm 8.8 WNW 4 5 1025.1 - 0.0 - - 10 - - - -
26/07:30pm 9.0 WNW 5 6 1024.9 - 0.0 - - 10 - - - -
26/07:00pm 10.2 CALM 0 0 1024.8 - 0.0 - - 10 - - - -
26/06:30pm 10.6 CALM 0 0 1024.6 - 0.0 - - 10 - - - -
26/06:00pm 11.5 SE 3 4 1024.4 - 0.0 - Mostly cloudy 10 - - - -
26/05:30pm 12.3 SE 5 6 1023.9 - 0.0 - - 10 - - - -
26/05:00pm 13.2 SE 4 5 1024.0 - 0.0 - - 10 - - - -
26/04:30pm 13.7 SE 4 5 1023.8 - 0.0 - - 10 - - - -
26/04:00pm 14.3 SE 5 7 1023.7 - 0.0 - - 10 - - - -
26/03:30pm 14.7 SE 6 8 1023.6 - 0.0 - - 10 - - - -
26/03:00pm 15.2 SE 7 10 1023.6 - 0.0 - Mostly clear 10 - - - -
26/02:30pm 14.4 SE 8 10 1023.9 - 0.0 - - 10 - - - -
26/02:00pm 15.3 SE 8 10 1024.2 - 0.0 - - 10 - - - -
26/01:30pm 15.2 SE 7 11 1024.4 - 0.0 - - 10 - - - -
26/01:00pm 14.8 ESE 6 9 1025.0 - 0.0 - - 10 - - - -
26/12:30pm 14.8 SE 3 5 1025.6 - 0.0 - - 10 - - - -
26/12:00pm 14.7 E 4 6 1025.6 - 0.0 - - 10 - - - -
26/11:30am 14.2 ESE 5 7 1025.8 - 0.0 - - 10 - - - -
26/11:00am 13.6 ESE 4 6 1025.9 - 0.0 - - 10 - - - -
26/10:30am 14.0 CALM 0 2 1025.9 - 0.0 - - 10 - - - -
26/10:00am 12.5 WSW 3 5 1026.0 - 0.0 - - 10 - - - -
26/09:30am 10.0 WNW 4 5 1025.6 - 0.0 - - 10 - - - -
26/09:00am 7.5 WNW 4 6 1025.7 - 0.0 - - 10 - - - -
26/08:30am 5.5 NW 5 7 1025.8 - 0.0 - - 10 - - - -
26/08:00am 4.0 NNW 6 8 1025.6 - 0.0 - - 10 - - - -
26/07:30am 2.5 NW 6 7 1025.2 - 0.0 - - 10 - - - -
26/07:00am 1.7 N 4 6 1025.0 - 0.0 - - 10 - - - -
26/06:30am 3.0 N 1 5 1024.7 - 0.0 - - 10 - - - -
26/06:00am 2.9 NNW 5 5 1024.0 - 0.0 - - 10 - - - -
26/05:30am 3.0 NNW 5 6 1023.9 - 0.0 - - 10 - - - -
26/05:00am 3.6 NNW 6 7 1023.8 - 0.0 - - 10 - - - -
26/04:30am 4.0 NW 6 7 1023.8 - 0.0 - Partly cloudy 10 - - - -
26/04:00am 4.6 NNW 7 7 1023.9 - 0.0 - Partly cloudy 10 - - - -
26/03:30am 4.3 NNW 6 8 1024.0 - 0.0 - - 10 - - - -
26/03:00am 3.7 NW 5 7 1023.8 - 0.0 - - 10 - - - -
26/02:30am 3.8 NNW 5 7 1024.0 - 0.0 - - 10 - - - -
26/02:00am 4.0 NNW 5 5 1024.0 - 0.0 - - 10 - - - -
26/01:30am 4.5 NNW 5 6 1023.9 - 0.0 - - 10 - - - -
26/01:00am 4.7 NW 6 7 1023.6 - 0.0 - - 10 - - - -
26/12:30am 5.2 NNW 5 6 1023.5 - 0.0 - - 10 - - - -
26/12:00am 4.8 NW 5 6 1023.2 - 0.0 - - 10 - - - -
 
Date/Time
CST
Temp
°C
Wind Pressure Rain since
9am
mm
Weather Cloud Vis
km
Sea
Height
m
Swell
Dir  Spd
kts
Gust
kts
hPa Trend Height
m
Period
s
Dir
25/11:30pm 5.4 NNW 5 6 1023.5 - 0.0 - - 10 - - - -
25/11:00pm 5.2 NW 5 5 1023.7 - 0.0 - - 10 - - - -
25/10:30pm 5.5 NW 5 5 1023.4 - 0.0 - - 10 - - - -
25/10:00pm 5.5 WNW 4 5 1023.4 - 0.0 - - 10 - - - -
25/09:30pm 6.3 W 5 6 1023.5 - 0.0 - - 10 - - - -
25/09:00pm 6.4 W 4 5 1023.4 - 0.0 - Mostly clear 10 - - - -
25/08:30pm 6.8 WSW 6 7 1023.3 - 0.0 - - 10 - - - -
25/08:00pm 7.4 WSW 6 7 1023.1 - 0.0 - - 10 - - - -
25/07:30pm 8.3 W 4 5 1023.0 - 0.0 - - 10 - - - -
25/07:00pm 9.4 SSW 3 4 1022.4 - 0.0 - - 10 - - - -
25/06:30pm 11.9 SSE 1 4 1022.1 - 0.0 - Partly cloudy 10 - - - -
25/06:00pm 12.7 S 5 7 1021.6 - 0.0 - Mostly cloudy 10 - - - -
25/05:30pm 13.4 S 7 9 1021.6 - 0.0 - Partly cloudy 10 - - - -
25/05:00pm 14.0 SSE 7 10 1021.4 - 0.0 - Partly cloudy 10 - - - -
25/04:30pm 14.0 SSE 8 10 1021.5 - 0.0 - Partly cloudy 10 - - - -
25/04:00pm 14.5 SSE 11 16 1021.4 - 0.0 - Cloudy 10 - - - -
25/03:30pm 15.7 ESE 8 12 1021.1 - 0.0 - Partly cloudy 10 - - - -
25/03:00pm 15.8 SSW 7 11 1021.2 - 0.0 - Cloudy 10 - - - -
25/02:30pm 17.3 W 9 16 1021.2 - 0.0 - Cloudy 10 - - - -
25/02:00pm 16.1 WSW 10 13 1021.4 - 0.0 - Cloudy 10 - - - -
25/01:30pm 16.3 WSW 10 15 1021.3 - 0.0 - Partly cloudy 10 - - - -
25/01:00pm 16.3 SW 11 15 1021.4 - 0.0 - Partly cloudy 10 - - - -
25/12:30pm 15.7 SW 10 15 1021.7 - 0.0 - Partly cloudy 10 - - - -
25/12:00pm 15.5 SSW 10 13 1021.8 - 0.0 - Cloudy 10 - - - -
25/11:30am 15.4 W 9 14 1022.0 - 0.0 - Partly cloudy 10 - - - -
25/11:00am 15.0 W 9 13 1022.4 - 0.0 - Partly cloudy 10 - - - -
25/10:30am 14.2 WNW 8 9 1022.5 - 0.0 - - 10 - - - -
25/10:00am 12.4 NW 7 9 1022.6 - 0.0 - - 10 - - - -
25/09:30am 10.1 NNW 7 9 1022.3 - 0.0 - Partly cloudy 10 - - - -
25/09:00am 9.2 NW 6 8 1022.1 - 0.0 - Cloudy 10 - - - -
25/08:30am 6.8 NW 6 7 1021.6 - 0.0 - - 10 - - - -
25/08:00am 5.4 NNW 5 5 1021.3 - 0.0 - - 10 - - - -
25/07:30am 4.5 NNW 5 7 1020.9 - 0.0 - - 9 - - - -
25/07:00am 3.8 NW 5 6 1020.6 - 0.0 - - 10 - - - -
25/06:30am 4.4 NW 5 6 1020.2 - 0.0 - - 8 - - - -
25/06:00am 4.6 NW 4 6 1019.7 - 0.0 - - 9 - - - -
25/05:30am 5.9 NNW 4 4 1019.5 - 0.0 - - 8 - - - -
25/05:29am 6.0 NNW 4 4 1019.5 - 0.0 - - 8 - - - -
25/05:16am 6.5 NNW 4 5 1019.4 - 0.0 - Partly cloudy 5 - - - -
25/05:00am 6.7 NNW 5 6 1019.5 - 0.0 - Partly cloudy 9 - - - -
25/04:30am 7.7 WSW 3 4 1019.5 - 0.0 - Partly cloudy 10 - - - -
25/04:00am 7.4 W 4 5 1019.5 - 0.0 - Cloudy 10 - - - -
25/03:41am 7.1 W 3 4 1019.6 - 0.0 - Partly cloudy 10 - - - -
25/03:30am 6.9 W 3 4 1019.5 - 0.0 - Partly cloudy 5 - - - -
25/03:26am 7.2 W 3 4 1019.5 - 0.0 - Partly cloudy 5 - - - -
25/03:00am 6.5 W 5 7 1019.4 - 0.0 - Partly cloudy 7 - - - -
25/02:30am 6.4 W 4 5 1019.6 - 0.0 - - 6 - - - -
25/02:00am 7.4 WSW 6 7 1019.5 - 0.0 - - 9 - - - -
25/01:30am 6.5 WSW 4 5 1019.4 - 0.0 - - 8 - - - -
25/01:00am 6.9 WSW 5 7 1019.5 - 0.0 - - 7 - - - -
25/12:30am 6.6 NW 6 7 1019.5 - 0.0 - - 9 - - - -
25/12:00am 8.0 WNW 5 5 1019.4 - 0.0 - - 8 - - - -
 
Date/Time
CST
Temp
°C
Wind Pressure Rain since
9am
mm
Weather Cloud Vis
km
Sea
Height
m
Swell
Dir  Spd
kts
Gust
kts
hPa Trend Height
m
Period
s
Dir
24/11:30pm 9.8 SW 4 5 1019.5 - 0.0 - - 10 - - - -
24/11:00pm 9.9 SW 6 8 1019.5 - 0.0 - - 10 - - - -
24/10:30pm 10.3 SW 6 7 1019.4 - 0.0 - - 10 - - - -
24/10:00pm 10.8 SW 6 8 1019.3 - 0.0 - - 10 - - - -
24/09:30pm 11.3 SSW 7 9 1018.9 - 0.0 - - 10 - - - -
24/09:00pm 11.1 SSW 7 9 1019.0 - 0.0 - - 10 - - - -
24/08:30pm 11.1 SW 7 9 1019.0 - 0.0 - Partly cloudy 10 - - - -
24/08:00pm 11.1 SSW 7 9 1018.7 - 0.0 - - 10 - - - -
24/07:30pm 10.9 SSW 5 6 1018.6 - 0.0 - Partly cloudy 10 - - - -
24/07:00pm 11.8 SSW 4 6 1018.4 - 0.0 - - 10 - - - -
24/06:30pm 11.9 S 5 6 1018.1 - 0.0 - - 10 - - - -
24/06:00pm 12.5 S 6 7 1017.9 - 0.0 - - 10 - - - -
24/05:30pm 13.4 S 5 7 1017.7 - 0.0 - - 10 - - - -
24/05:00pm 14.2 SSE 5 8 1017.7 - 0.0 - - 10 - - - -
24/04:30pm 14.8 SSE 7 9 1017.6 - 0.0 - Partly cloudy 10 - - - -
24/04:00pm 15.6 SSE 7 10 1017.7 - 0.0 - - 10 - - - -
24/03:30pm 15.5 S 9 12 1017.4 - 0.0 - Partly cloudy 10 - - - -
24/03:00pm 16.5 S 9 13 1017.3 - 0.0 - Partly cloudy 10 - - - -
24/02:30pm 16.0 SSE 8 11 1017.4 - 0.0 - - 10 - - - -
24/02:00pm 16.2 SSE 6 9 1017.6 - 0.0 - - 10 - - - -
24/01:30pm 15.8 SE 7 9 1017.9 - 0.0 - - 10 - - - -
24/01:00pm 15.7 S 7 10 1018.1 - 0.0 - - 10 - - - -
24/12:46pm 15.0 S 8 10 1018.3 - 0.0 - Partly cloudy 10 - - - -
24/12:30pm 15.1 S 8 11 1018.5 - 0.0 - Partly cloudy 10 - - - -
24/12:00pm 14.4 S 6 8 1018.9 - 0.0 - Mostly cloudy 10 - - - -
24/11:30am 13.0 SSW 5 7 1019.4 - 0.0 - Cloudy 10 - - - -
24/11:28am 13.0 SSW 5 7 1019.4 - 0.0 - Cloudy 10 - - - -
24/11:00am 12.5 SSW 7 9 1019.9 - 0.0 - Cloudy 0.7 - - - -
24/10:30am 12.1 SSW 5 7 1019.8 - 0.0 - Cloudy 4 - - - -
24/10:26am 12.1 SSW 5 7 1019.8 - 0.0 - Cloudy 5 - - - -
24/10:11am 11.9 S 5 7 1019.9 - 0.0 - Cloudy 8 - - - -
24/10:00am 11.9 SSW 5 7 1019.8 - 0.0 - Cloudy 4 - - - -
24/09:30am 11.2 SW 3 4 1019.7 - 0.0 - Cloudy 0.1 - - - -
24/09:00am 9.7 NNW 2 4 1019.4 - 0.6 - Cloudy 7 - - - -
24/08:30am 8.3 NNW 3 4 1019.5 - 0.6 - Cloudy 0.6 - - - -
24/08:00am 7.2 NW 4 5 1019.1 - 0.6 - Cloudy 0.1 - - - -
24/07:41am 6.4 NW 4 5 1018.9 - 0.6 - Cloudy 3 - - - -
24/07:30am 6.2 NW 4 6 1018.9 - 0.6 - Partly cloudy 10 - - - -
24/07:00am 6.0 NW 5 6 1018.7 - 0.6 - Partly cloudy 10 - - - -
24/06:30am 5.8 NW 5 6 1018.4 - 0.6 - Partly cloudy 10 - - - -

Other Formats:

Comma delimited format used in spreadsheet applications
http://www.bom.gov.au/fwo/IDS60701/IDS60701.95664.axf

JavaScript Object Notation format (JSON) in row-major order
http://www.bom.gov.au/fwo/IDS60701/IDS60701.95664.json